Time;durP1;ratioP1;P1;durP2;ratioP2;P2;SDS_P1;SDS_P2;PMS_P1;PMS_P2;Temp;Humidity;BMP_temperature;BMP_pressure;BME280_temperature;BME280_humidity;BME280_pressure;Samples;Min_cycle;Max_cycle;Signal;HPM_P1;HPM_P2
2021/01/02 00:02:14;;;;;;;18.37;14.17;;;;;;;;;;5054177;28;20218;-60
2021/01/02 00:04:43;;;;;;;18.47;14.97;;;;;;;;;;5055996;28;20427;-60
2021/01/02 00:07:21;;;;;;;16.73;13.87;;;;;;;;;;5050055;28;20475;-60
2021/01/02 00:09:49;;;;;;;16.57;12.60;;;;;;;;;;5049420;28;20419;-60
2021/01/02 00:12:28;;;;;;;15.57;13.80;;;;;;;;;;5040912;28;20435;-60
2021/01/02 00:15:07;;;;;;;17.27;14.80;;;;;;;;;;5053362;28;20428;-60
2021/01/02 00:17:51;;;;;;;17.33;13.43;;;;;;;;;;5059838;28;20461;-60
2021/01/02 00:20:18;;;;;;;18.27;13.97;;;;;;;;;;5051951;28;20907;-60
2021/01/02 00:22:48;;;;;;;17.70;13.90;;;;;;;;;;5039350;28;20436;-59
2021/01/02 00:25:15;;;;;;;17.93;14.40;;;;;;;;;;5044650;28;20423;-59
2021/01/02 00:27:49;;;;;;;18.27;14.43;;;;;;;;;;5050281;28;20452;-60
2021/01/02 00:30:35;;;;;;;17.63;13.50;;;;;;;;;;5035014;28;20476;-60
2021/01/02 00:33:18;;;;;;;16.03;13.17;;;;;;;;;;5034061;28;20424;-60
2021/01/02 00:35:44;;;;;;;18.57;15.07;;;;;;;;;;5036049;28;20423;-60
2021/01/02 00:38:11;;;;;;;15.90;13.70;;;;;;;;;;5046793;28;20451;-62
2021/01/02 00:40:37;;;;;;;18.00;13.20;;;;;;;;;;5053538;28;20449;-60
2021/01/02 00:43:07;;;;;;;18.17;13.43;;;;;;;;;;5041239;28;20428;-59
2021/01/02 00:45:33;;;;;;;15.70;13.13;;;;;;;;;;5048042;28;20495;-59
2021/01/02 00:50:55;;;;;;;14.63;13.03;;;;;;;;;;5051590;28;20417;-60
2021/01/02 00:53:40;;;;;;;16.23;12.80;;;;;;;;;;5050779;28;20737;-60
2021/01/02 00:56:07;;;;;;;16.67;13.37;;;;;;;;;;5039072;28;20463;-60
2021/01/02 00:58:51;;;;;;;14.97;11.50;;;;;;;;;;5032320;28;20505;-59
2021/01/02 01:01:24;;;;;;;15.70;12.93;;;;;;;;;;5038417;28;20647;-60
2021/01/02 01:04:09;;;;;;;15.07;12.47;;;;;;;;;;5051879;28;20197;-60
2021/01/02 01:06:38;;;;;;;17.17;12.73;;;;;;;;;;5052252;28;20412;-59
2021/01/02 01:09:05;;;;;;;15.27;12.57;;;;;;;;;;5032626;28;20438;-60
2021/01/02 01:11:36;;;;;;;17.70;12.93;;;;;;;;;;5065514;28;20431;-60
2021/01/02 01:14:03;;;;;;;18.93;13.07;;;;;;;;;;5066326;28;20485;-60
2021/01/02 01:16:29;;;;;;;16.73;13.00;;;;;;;;;;5035903;28;20418;-60
2021/01/02 01:19:04;;;;;;;16.67;13.53;;;;;;;;;;5051320;28;20463;-60
2021/01/02 01:21:35;;;;;;;17.77;12.63;;;;;;;;;;5033064;28;20411;-62
2021/01/02 01:24:14;;;;;;;15.83;12.87;;;;;;;;;;5055393;28;20407;-60
2021/01/02 01:26:40;;;;;;;17.63;13.77;;;;;;;;;;5068865;28;20469;-62
2021/01/02 01:29:06;;;;;;;19.07;13.83;;;;;;;;;;5050997;28;20408;-60
2021/01/02 01:31:45;;;;;;;16.77;13.03;;;;;;;;;;5043646;28;20240;-62
2021/01/02 01:34:12;;;;;;;16.37;12.37;;;;;;;;;;5033147;28;20423;-60
2021/01/02 01:36:42;;;;;;;16.70;12.57;;;;;;;;;;5051189;28;20426;-59
2021/01/02 01:39:08;;;;;;;16.67;12.20;;;;;;;;;;5054116;28;20402;-60
2021/01/02 01:41:38;;;;;;;15.17;13.00;;;;;;;;;;5072217;28;20522;-59
2021/01/02 01:44:12;;;;;;;14.40;11.73;;;;;;;;;;5050799;28;20914;-60
2021/01/02 01:46:52;;;;;;;16.90;12.67;;;;;;;;;;5067316;28;20830;-59
2021/01/02 01:49:38;;;;;;;15.07;12.57;;;;;;;;;;5051529;28;20454;-59
2021/01/02 01:52:07;;;;;;;14.73;13.00;;;;;;;;;;5033772;28;20474;-60
2021/01/02 01:54:54;;;;;;;15.87;12.37;;;;;;;;;;5054750;28;20439;-60
2021/01/02 01:57:24;;;;;;;15.33;13.17;;;;;;;;;;5055296;28;20487;-59
2021/01/02 01:59:59;;;;;;;14.33;12.67;;;;;;;;;;5059084;28;20423;-60
2021/01/02 02:02:52;;;;;;;15.57;12.40;;;;;;;;;;5053328;28;20489;-60
2021/01/02 02:05:19;;;;;;;15.93;12.30;;;;;;;;;;5043273;28;20493;-61
2021/01/02 02:08:02;;;;;;;15.00;12.77;;;;;;;;;;5044288;28;20479;-60
2021/01/02 02:10:32;;;;;;;15.30;12.53;;;;;;;;;;5036107;28;20529;-60
2021/01/02 02:12:59;;;;;;;16.30;12.50;;;;;;;;;;5039318;28;20420;-62
2021/01/02 02:15:27;;;;;;;16.37;12.73;;;;;;;;;;5046420;28;20435;-60
2021/01/02 02:17:54;;;;;;;15.50;12.57;;;;;;;;;;5049840;28;20416;-60
2021/01/02 02:20:23;;;;;;;16.50;12.50;;;;;;;;;;5042924;28;20495;-59
2021/01/02 02:23:00;;;;;;;15.93;12.93;;;;;;;;;;5043048;28;20829;-60
2021/01/02 02:25:26;;;;;;;16.83;12.53;;;;;;;;;;5048228;28;20438;-60
2021/01/02 02:27:53;;;;;;;14.63;12.43;;;;;;;;;;5050263;28;20491;-60
2021/01/02 02:30:34;;;;;;;15.27;12.00;;;;;;;;;;5047151;28;20449;-60
2021/01/02 02:33:04;;;;;;;15.13;12.07;;;;;;;;;;5029397;28;20428;-61
2021/01/02 02:35:30;;;;;;;14.07;11.27;;;;;;;;;;5036907;28;20450;-59
2021/01/02 02:37:56;;;;;;;14.50;12.13;;;;;;;;;;5049197;28;20438;-61
2021/01/02 02:40:23;;;;;;;13.50;11.07;;;;;;;;;;5047290;28;20424;-60
2021/01/02 02:42:59;;;;;;;14.43;11.37;;;;;;;;;;5047214;28;20181;-60
2021/01/02 02:45:27;;;;;;;12.53;11.23;;;;;;;;;;5046006;28;20439;-60
2021/01/02 02:47:54;;;;;;;16.27;10.90;;;;;;;;;;5035905;28;20983;-59
2021/01/02 02:50:25;;;;;;;14.83;11.17;;;;;;;;;;5040075;28;20430;-59
2021/01/02 02:53:04;;;;;;;14.60;11.20;;;;;;;;;;5042377;28;20424;-61
2021/01/02 02:55:30;;;;;;;12.43;10.37;;;;;;;;;;5039698;28;20407;-60
2021/01/02 02:57:56;;;;;;;12.33;10.40;;;;;;;;;;5053301;28;20745;-60
2021/01/02 03:00:22;;;;;;;12.60;10.77;;;;;;;;;;5042773;28;20931;-60
2021/01/02 03:02:49;;;;;;;13.43;10.97;;;;;;;;;;5047380;28;20467;-60
2021/01/02 03:05:18;;;;;;;13.57;10.30;;;;;;;;;;5070120;28;20450;-60
2021/01/02 03:07:45;;;;;;;12.90;9.57;;;;;;;;;;5034521;28;20466;-60
2021/01/02 03:10:12;;;;;;;13.37;10.43;;;;;;;;;;5036520;28;20427;-60
2021/01/02 03:12:42;;;;;;;13.30;10.77;;;;;;;;;;5054994;28;20428;-60
2021/01/02 03:15:09;;;;;;;13.70;11.20;;;;;;;;;;5036276;28;20416;-60
2021/01/02 03:17:35;;;;;;;12.90;10.70;;;;;;;;;;5035527;28;20415;-60
2021/01/02 03:20:01;;;;;;;14.57;11.17;;;;;;;;;;5055900;28;20432;-59
2021/01/02 03:22:27;;;;;;;11.33;9.77;;;;;;;;;;5052437;28;20196;-61
2021/01/02 03:24:53;;;;;;;15.20;11.23;;;;;;;;;;5065542;28;20422;-60
2021/01/02 03:27:19;;;;;;;14.53;10.17;;;;;;;;;;5055101;28;20227;-60
2021/01/02 03:29:45;;;;;;;12.77;10.30;;;;;;;;;;5054555;28;20204;-60
2021/01/02 03:32:11;;;;;;;13.43;10.50;;;;;;;;;;5041290;28;20172;-59
2021/01/02 03:34:37;;;;;;;12.17;10.10;;;;;;;;;;5064174;28;20671;-60
2021/01/02 03:37:04;;;;;;;11.47;9.63;;;;;;;;;;5072435;28;20450;-59
2021/01/02 03:39:30;;;;;;;13.40;10.47;;;;;;;;;;5071534;28;20936;-61
2021/01/02 03:41:56;;;;;;;12.63;10.23;;;;;;;;;;5053191;28;20428;-60
2021/01/02 03:44:22;;;;;;;13.00;10.50;;;;;;;;;;5069444;28;20184;-61
2021/01/02 03:46:48;;;;;;;13.83;10.93;;;;;;;;;;5047181;28;20204;-59
2021/01/02 03:49:14;;;;;;;13.17;10.13;;;;;;;;;;5042856;28;20827;-59
2021/01/02 03:51:40;;;;;;;14.70;10.83;;;;;;;;;;5037672;28;20219;-59
2021/01/02 03:54:06;;;;;;;14.07;10.23;;;;;;;;;;5033754;28;20177;-59
2021/01/02 03:56:32;;;;;;;15.03;10.00;;;;;;;;;;5066786;28;20427;-60
2021/01/02 03:58:58;;;;;;;13.53;10.60;;;;;;;;;;5072025;28;20181;-61
2021/01/02 04:01:24;;;;;;;15.07;10.73;;;;;;;;;;5067943;28;20422;-60
2021/01/02 04:03:50;;;;;;;13.13;10.20;;;;;;;;;;5048367;28;20800;-60
2021/01/02 04:06:23;;;;;;;13.97;11.17;;;;;;;;;;5046787;28;20426;-60
2021/01/02 04:08:49;;;;;;;13.70;11.37;;;;;;;;;;5046706;28;20293;-59
2021/01/02 04:11:15;;;;;;;15.53;11.97;;;;;;;;;;5046035;28;20451;-60
2021/01/02 04:13:41;;;;;;;14.40;11.27;;;;;;;;;;5070339;28;20192;-59
2021/01/02 04:16:07;;;;;;;17.57;11.43;;;;;;;;;;5051893;28;20415;-59
2021/01/02 04:18:34;;;;;;;14.03;11.27;;;;;;;;;;5061714;28;20189;-60
2021/01/02 04:21:00;;;;;;;13.50;11.10;;;;;;;;;;5035232;28;20436;-60
2021/01/02 04:23:26;;;;;;;13.20;10.90;;;;;;;;;;5051553;28;21224;-60
2021/01/02 04:25:53;;;;;;;14.77;11.37;;;;;;;;;;5044334;28;21264;-59
2021/01/02 04:28:19;;;;;;;12.97;10.67;;;;;;;;;;5064603;28;20588;-59
2021/01/02 04:30:45;;;;;;;13.93;11.43;;;;;;;;;;5061218;28;20493;-60
2021/01/02 04:33:11;;;;;;;15.63;12.23;;;;;;;;;;5044867;28;20456;-59
2021/01/02 04:35:37;;;;;;;15.13;11.70;;;;;;;;;;5041380;28;20505;-59
2021/01/02 04:38:03;;;;;;;16.77;11.70;;;;;;;;;;5070254;28;20540;-60
2021/01/02 04:40:30;;;;;;;13.90;11.43;;;;;;;;;;5058656;28;20434;-60
2021/01/02 04:42:56;;;;;;;15.23;11.77;;;;;;;;;;5044130;28;20431;-60
2021/01/02 04:45:22;;;;;;;16.23;11.80;;;;;;;;;;5057182;28;20823;-62
2021/01/02 04:47:49;;;;;;;14.47;10.87;;;;;;;;;;5070375;28;20617;-61
2021/01/02 04:50:16;;;;;;;16.37;12.30;;;;;;;;;;5069324;28;20505;-59
2021/01/02 04:52:42;;;;;;;17.30;12.27;;;;;;;;;;5050800;28;20899;-60
2021/01/02 04:55:09;;;;;;;15.67;12.20;;;;;;;;;;5055363;28;20427;-60
2021/01/02 04:57:36;;;;;;;17.70;12.40;;;;;;;;;;5070284;28;20399;-60
2021/01/02 05:00:05;;;;;;;16.30;12.87;;;;;;;;;;5054298;28;20506;-60
2021/01/02 05:02:33;;;;;;;15.47;12.40;;;;;;;;;;5063209;28;20463;-60
2021/01/02 05:04:59;;;;;;;14.83;12.27;;;;;;;;;;5054045;28;20759;-60
2021/01/02 05:07:30;;;;;;;17.00;12.93;;;;;;;;;;5055889;28;20467;-60
2021/01/02 05:09:56;;;;;;;12.97;11.60;;;;;;;;;;5053168;28;20498;-59
2021/01/02 05:12:23;;;;;;;15.53;12.20;;;;;;;;;;5067483;28;20469;-60
2021/01/02 05:14:59;;;;;;;16.37;11.87;;;;;;;;;;5052018;28;22086;-60
2021/01/02 05:17:25;;;;;;;15.07;12.17;;;;;;;;;;5066088;28;20929;-59
2021/01/02 05:20:02;;;;;;;16.17;12.97;;;;;;;;;;5052588;28;20426;-60
2021/01/02 05:22:28;;;;;;;18.67;13.50;;;;;;;;;;5056697;28;20418;-61
2021/01/02 05:25:12;;;;;;;19.33;13.67;;;;;;;;;;5052622;28;20416;-60
2021/01/02 05:27:38;;;;;;;20.80;13.83;;;;;;;;;;5044144;28;20463;-60
2021/01/02 05:30:20;;;;;;;17.33;13.37;;;;;;;;;;5036833;28;20830;-59
2021/01/02 05:32:55;;;;;;;20.00;12.60;;;;;;;;;;5058384;28;20771;-59
2021/01/02 05:35:25;;;;;;;16.27;13.10;;;;;;;;;;5045003;28;20450;-59
2021/01/02 05:37:51;;;;;;;19.93;13.50;;;;;;;;;;5061814;28;20430;-59
2021/01/02 05:40:33;;;;;;;20.00;14.77;;;;;;;;;;5065287;28;20930;-60
2021/01/02 05:43:00;;;;;;;17.33;13.87;;;;;;;;;;5055215;28;20433;-59
2021/01/02 05:45:28;;;;;;;16.73;12.90;;;;;;;;;;5068120;28;20430;-60
2021/01/02 05:47:58;;;;;;;18.63;14.07;;;;;;;;;;5047908;28;20459;-60
2021/01/02 05:50:24;;;;;;;17.10;13.20;;;;;;;;;;5046098;28;20441;-60
2021/01/02 05:52:51;;;;;;;15.13;12.77;;;;;;;;;;5066507;28;20898;-59
2021/01/02 05:55:32;;;;;;;18.13;13.10;;;;;;;;;;5054738;28;20426;-60
2021/01/02 05:58:15;;;;;;;16.60;13.50;;;;;;;;;;5036089;28;20454;-60
2021/01/02 06:00:43;;;;;;;17.73;14.20;;;;;;;;;;5041119;28;20910;-59
2021/01/02 06:03:21;;;;;;;16.20;13.93;;;;;;;;;;5063139;28;20463;-61
2021/01/02 06:05:57;;;;;;;18.83;13.87;;;;;;;;;;5060153;28;20436;-59
2021/01/02 06:08:49;;;;;;;17.40;13.03;;;;;;;;;;5061774;28;20490;-60
2021/01/02 06:11:16;;;;;;;19.53;13.43;;;;;;;;;;5059139;28;20457;-60
2021/01/02 06:13:43;;;;;;;18.80;13.33;;;;;;;;;;5045576;28;20427;-61
2021/01/02 06:16:10;;;;;;;18.90;14.37;;;;;;;;;;5066206;28;20984;-60
2021/01/02 06:18:40;;;;;;;17.53;13.43;;;;;;;;;;5061051;28;20443;-61
2021/01/02 06:21:08;;;;;;;19.20;13.23;;;;;;;;;;5036821;28;20427;-59
2021/01/02 06:23:35;;;;;;;19.57;14.87;;;;;;;;;;5058437;28;20467;-62
2021/01/02 06:26:04;;;;;;;19.90;14.40;;;;;;;;;;5062475;28;20420;-59
2021/01/02 06:28:30;;;;;;;19.70;14.10;;;;;;;;;;5063995;28;21046;-59
2021/01/02 06:31:04;;;;;;;19.07;14.27;;;;;;;;;;5053733;28;20446;-58
2021/01/02 06:33:30;;;;;;;19.83;13.63;;;;;;;;;;5047462;28;20173;-58
2021/01/02 06:35:57;;;;;;;18.70;14.17;;;;;;;;;;5047746;28;20476;-58
2021/01/02 06:38:24;;;;;;;18.53;15.13;;;;;;;;;;5065896;28;20521;-58
2021/01/02 06:40:54;;;;;;;16.97;13.80;;;;;;;;;;5056793;28;20431;-58
2021/01/02 06:43:22;;;;;;;19.70;14.43;;;;;;;;;;5035951;28;20419;-58
2021/01/02 06:45:53;;;;;;;18.30;14.63;;;;;;;;;;5063060;28;20434;-58
2021/01/02 06:48:25;;;;;;;18.23;13.93;;;;;;;;;;5064332;28;20472;-58
2021/01/02 06:50:52;;;;;;;21.97;15.13;;;;;;;;;;5065397;28;20411;-58
2021/01/02 06:53:25;;;;;;;22.77;15.57;;;;;;;;;;5061691;28;20533;-58
2021/01/02 06:56:11;;;;;;;20.37;14.30;;;;;;;;;;5056690;28;20415;-58
2021/01/02 06:58:44;;;;;;;18.83;14.53;;;;;;;;;;5036195;28;20940;-58
2021/01/02 07:01:30;;;;;;;19.37;13.63;;;;;;;;;;5065028;28;20477;-59
2021/01/02 07:03:56;;;;;;;21.43;15.27;;;;;;;;;;5071396;28;20445;-58
2021/01/02 07:06:22;;;;;;;19.33;14.37;;;;;;;;;;5052766;28;20415;-58
2021/01/02 07:09:15;;;;;;;22.37;15.63;;;;;;;;;;5066966;28;20455;-58
2021/01/02 07:11:43;;;;;;;18.47;14.23;;;;;;;;;;5034683;28;20785;-58
2021/01/02 07:14:12;;;;;;;21.53;14.37;;;;;;;;;;5052848;28;20447;-58
2021/01/02 07:16:51;;;;;;;18.83;14.07;;;;;;;;;;5069834;28;20457;-58
2021/01/02 07:19:26;;;;;;;19.13;15.33;;;;;;;;;;5066629;28;20449;-59
2021/01/02 07:22:02;;;;;;;20.40;14.50;;;;;;;;;;5051845;28;21043;-58
2021/01/02 07:24:27;;;;;;;19.93;14.10;;;;;;;;;;5055506;28;20780;-58
2021/01/02 07:27:01;;;;;;;18.90;14.00;;;;;;;;;;5071536;28;20434;-58
2021/01/02 07:29:28;;;;;;;22.33;15.10;;;;;;;;;;5056580;28;20169;-58
2021/01/02 07:32:03;;;;;;;21.27;16.07;;;;;;;;;;5053532;28;20841;-59
2021/01/02 07:34:29;;;;;;;21.17;15.07;;;;;;;;;;5038626;28;20775;-59
2021/01/02 07:36:55;;;;;;;20.90;15.20;;;;;;;;;;5035539;28;20800;-60
2021/01/02 07:39:21;;;;;;;18.47;14.57;;;;;;;;;;5040549;28;20424;-57
2021/01/02 07:41:49;;;;;;;20.67;15.43;;;;;;;;;;5041542;28;20423;-58
2021/01/02 07:44:15;;;;;;;22.03;15.67;;;;;;;;;;5053373;28;20896;-58
2021/01/02 07:46:45;;;;;;;19.33;15.20;;;;;;;;;;5038713;28;20420;-58
2021/01/02 07:49:12;;;;;;;21.40;15.17;;;;;;;;;;5049810;28;20997;-58
2021/01/02 07:51:38;;;;;;;25.20;14.83;;;;;;;;;;5055047;28;20465;-58
2021/01/02 07:54:05;;;;;;;21.50;15.13;;;;;;;;;;5066191;28;20881;-58
2021/01/02 07:56:43;;;;;;;19.03;15.23;;;;;;;;;;5070205;28;20503;-58
2021/01/02 07:59:25;;;;;;;21.13;14.57;;;;;;;;;;5052804;28;20423;-58
2021/01/02 08:01:51;;;;;;;19.97;15.03;;;;;;;;;;5053240;28;20459;-58
2021/01/02 08:04:18;;;;;;;19.73;14.33;;;;;;;;;;5057662;28;20980;-58
2021/01/02 08:06:48;;;;;;;23.60;15.60;;;;;;;;;;5068204;28;20427;-58
2021/01/02 08:09:14;;;;;;;20.03;15.27;;;;;;;;;;5052381;28;20430;-58
2021/01/02 08:12:10;;;;;;;25.73;16.47;;;;;;;;;;5059115;28;20411;-59
2021/01/02 08:14:37;;;;;;;20.73;15.20;;;;;;;;;;5033103;28;20738;-58
2021/01/02 08:17:07;;;;;;;21.33;15.77;;;;;;;;;;5052252;28;20473;-58
2021/01/02 08:19:38;;;;;;;21.03;14.67;;;;;;;;;;5035267;28;20511;-58
2021/01/02 08:22:06;;;;;;;20.53;14.97;;;;;;;;;;5049856;28;20465;-58
2021/01/02 08:24:32;;;;;;;21.07;16.00;;;;;;;;;;5042706;28;20411;-58
2021/01/02 08:27:00;;;;;;;23.23;16.73;;;;;;;;;;5049426;28;20888;-58
2021/01/02 08:29:26;;;;;;;22.70;15.73;;;;;;;;;;5048428;28;20505;-59
2021/01/02 08:31:54;;;;;;;22.53;16.13;;;;;;;;;;5034018;28;20411;-58
2021/01/02 08:34:23;;;;;;;21.63;16.17;;;;;;;;;;5058835;28;20530;-59
2021/01/02 08:36:50;;;;;;;21.57;16.50;;;;;;;;;;5070707;28;20419;-58
2021/01/02 08:39:20;;;;;;;23.03;14.83;;;;;;;;;;5049351;28;20419;-59
2021/01/02 08:41:52;;;;;;;21.53;14.93;;;;;;;;;;5050982;28;20465;-60
2021/01/02 08:44:21;;;;;;;24.80;16.40;;;;;;;;;;5051892;28;20399;-57
2021/01/02 08:46:47;;;;;;;23.77;16.23;;;;;;;;;;5071114;28;20441;-59
2021/01/02 08:49:26;;;;;;;20.33;15.20;;;;;;;;;;5071019;28;20514;-58
2021/01/02 08:51:52;;;;;;;22.97;15.70;;;;;;;;;;5071847;28;20793;-58
2021/01/02 08:54:18;;;;;;;22.30;14.77;;;;;;;;;;5057779;28;20446;-58
2021/01/02 08:56:44;;;;;;;22.17;16.37;;;;;;;;;;5055185;28;20189;-58
2021/01/02 08:59:13;;;;;;;23.03;15.83;;;;;;;;;;5053666;28;20608;-58
2021/01/02 09:01:39;;;;;;;22.83;16.10;;;;;;;;;;5048616;28;20542;-58
2021/01/02 09:04:14;;;;;;;21.73;15.57;;;;;;;;;;5035505;28;20407;-58
2021/01/02 09:06:40;;;;;;;21.77;14.87;;;;;;;;;;5071241;28;20414;-58
2021/01/02 09:09:07;;;;;;;21.43;15.07;;;;;;;;;;5034621;28;20435;-58
2021/01/02 09:11:49;;;;;;;25.00;17.33;;;;;;;;;;5051461;28;20260;-58
2021/01/02 09:14:15;;;;;;;21.63;14.93;;;;;;;;;;5039943;28;20461;-59
2021/01/02 09:16:42;;;;;;;22.23;14.80;;;;;;;;;;5051772;28;20428;-58
2021/01/02 09:19:23;;;;;;;22.90;15.53;;;;;;;;;;5051321;28;20438;-58
2021/01/02 09:21:49;;;;;;;22.70;15.90;;;;;;;;;;5032894;28;20770;-57
2021/01/02 09:24:22;;;;;;;22.37;15.40;;;;;;;;;;5061131;28;20415;-58
2021/01/02 09:26:48;;;;;;;21.97;15.53;;;;;;;;;;5048297;28;20422;-58
2021/01/02 09:29:16;;;;;;;26.07;16.87;;;;;;;;;;5052378;28;21076;-59
2021/01/02 09:31:42;;;;;;;21.90;15.53;;;;;;;;;;5052622;28;20439;-59
2021/01/02 09:34:08;;;;;;;23.73;16.60;;;;;;;;;;5067330;28;20419;-58
2021/01/02 09:36:34;;;;;;;21.57;15.77;;;;;;;;;;5060299;28;21179;-58
2021/01/02 09:39:00;;;;;;;22.83;16.63;;;;;;;;;;5058568;28;20941;-58
2021/01/02 09:41:27;;;;;;;23.10;16.30;;;;;;;;;;5050617;28;20412;-60
2021/01/02 09:43:54;;;;;;;22.17;16.07;;;;;;;;;;5068861;28;20414;-58
2021/01/02 09:46:21;;;;;;;22.93;16.83;;;;;;;;;;5036649;28;20793;-58
2021/01/02 09:48:48;;;;;;;25.50;17.10;;;;;;;;;;5059091;28;20464;-58
2021/01/02 09:51:14;;;;;;;27.50;18.03;;;;;;;;;;5050839;28;20831;-58
2021/01/02 09:53:40;;;;;;;23.10;17.03;;;;;;;;;;5056344;28;20423;-58
2021/01/02 09:56:07;;;;;;;23.97;16.33;;;;;;;;;;5068081;28;20442;-59
2021/01/02 09:58:33;;;;;;;23.40;15.87;;;;;;;;;;5069956;28;20423;-58
2021/01/02 10:00:59;;;;;;;25.00;16.17;;;;;;;;;;5051457;28;20418;-58
2021/01/02 10:03:25;;;;;;;26.57;17.17;;;;;;;;;;5041732;28;20470;-58
2021/01/02 10:05:51;;;;;;;25.30;16.10;;;;;;;;;;5050690;28;20431;-58
2021/01/02 10:08:18;;;;;;;25.33;17.67;;;;;;;;;;5049834;28;20954;-58
2021/01/02 10:10:44;;;;;;;27.40;17.27;;;;;;;;;;5032635;28;20407;-58
2021/01/02 10:13:10;;;;;;;22.83;17.27;;;;;;;;;;5055293;28;20507;-57
2021/01/02 10:15:36;;;;;;;27.17;16.83;;;;;;;;;;5067500;28;20180;-58
2021/01/02 10:18:03;;;;;;;25.80;17.50;;;;;;;;;;5050080;28;20426;-58
2021/01/02 10:20:30;;;;;;;28.80;16.87;;;;;;;;;;5062622;28;20431;-58
2021/01/02 10:22:56;;;;;;;28.53;18.53;;;;;;;;;;5034390;28;20792;-58
2021/01/02 10:25:22;;;;;;;25.90;17.30;;;;;;;;;;5064772;28;20430;-59
2021/01/02 10:27:48;;;;;;;29.17;18.50;;;;;;;;;;5069593;28;20489;-58
2021/01/02 10:30:15;;;;;;;26.20;16.83;;;;;;;;;;5047760;28;20435;-58
2021/01/02 10:32:41;;;;;;;31.47;19.13;;;;;;;;;;5061656;28;20442;-58
2021/01/02 10:35:08;;;;;;;28.50;18.20;;;;;;;;;;5045509;28;20414;-58
2021/01/02 10:37:34;;;;;;;30.13;18.13;;;;;;;;;;5051260;28;20510;-58
2021/01/02 10:40:00;;;;;;;31.60;17.90;;;;;;;;;;5054975;28;20930;-58
2021/01/02 10:42:30;;;;;;;30.23;18.77;;;;;;;;;;5054662;28;20487;-58
2021/01/02 10:44:56;;;;;;;31.77;20.33;;;;;;;;;;5057809;28;20423;-58
2021/01/02 10:47:24;;;;;;;33.47;19.50;;;;;;;;;;5049609;28;20467;-59
2021/01/02 10:49:50;;;;;;;33.20;19.50;;;;;;;;;;5053106;28;20459;-58
2021/01/02 10:52:18;;;;;;;31.43;19.53;;;;;;;;;;5066785;28;20747;-58
2021/01/02 10:54:45;;;;;;;33.40;20.73;;;;;;;;;;5053910;28;20430;-59
2021/01/02 10:57:11;;;;;;;35.60;21.40;;;;;;;;;;5057271;28;20431;-58
2021/01/02 10:59:37;;;;;;;31.93;19.00;;;;;;;;;;5039911;28;20427;-60
2021/01/02 11:02:03;;;;;;;35.90;20.40;;;;;;;;;;5050226;28;20481;-58
2021/01/02 11:04:29;;;;;;;31.83;20.37;;;;;;;;;;5037787;28;20740;-58
2021/01/02 11:06:56;;;;;;;31.10;18.73;;;;;;;;;;5035066;28;20419;-58
2021/01/02 11:09:23;;;;;;;31.50;19.17;;;;;;;;;;5056342;28;21075;-58
2021/01/02 11:11:51;;;;;;;33.53;19.40;;;;;;;;;;5060204;28;20416;-58
2021/01/02 11:14:17;;;;;;;28.93;18.43;;;;;;;;;;5061697;28;20430;-58
2021/01/02 11:16:43;;;;;;;32.43;20.43;;;;;;;;;;5064472;28;20434;-59
2021/01/02 11:19:11;;;;;;;34.97;19.67;;;;;;;;;;5038183;28;20812;-58
2021/01/02 11:21:37;;;;;;;30.33;19.03;;;;;;;;;;5039656;28;20510;-57
2021/01/02 11:24:04;;;;;;;34.53;20.27;;;;;;;;;;5064331;28;20460;-58
2021/01/02 11:26:30;;;;;;;33.00;19.67;;;;;;;;;;5063146;28;20427;-58
2021/01/02 11:28:56;;;;;;;34.80;20.23;;;;;;;;;;5037571;28;20824;-59
2021/01/02 11:31:31;;;;;;;29.43;18.97;;;;;;;;;;5061274;28;20193;-59
2021/01/02 11:33:58;;;;;;;34.47;20.27;;;;;;;;;;5059970;28;20583;-59
2021/01/02 11:36:24;;;;;;;30.27;18.80;;;;;;;;;;5060261;28;20431;-58
2021/01/02 11:38:50;;;;;;;30.40;19.33;;;;;;;;;;5066704;28;20427;-58
2021/01/02 11:41:20;;;;;;;32.27;19.77;;;;;;;;;;5064373;28;20427;-58
2021/01/02 11:43:46;;;;;;;34.37;20.20;;;;;;;;;;5063998;28;20522;-58
2021/01/02 11:46:13;;;;;;;36.07;19.97;;;;;;;;;;5062720;28;20568;-58
2021/01/02 11:48:41;;;;;;;34.70;20.60;;;;;;;;;;5061459;28;20296;-58
2021/01/02 11:51:12;;;;;;;31.80;18.20;;;;;;;;;;5061758;28;20427;-58
2021/01/02 11:53:38;;;;;;;30.77;18.73;;;;;;;;;;5062140;28;20442;-61
2021/01/02 11:56:04;;;;;;;30.30;19.53;;;;;;;;;;5051455;28;20441;-58
2021/01/02 11:58:30;;;;;;;29.47;18.23;;;;;;;;;;5053969;28;20435;-57
2021/01/02 12:00:56;;;;;;;30.43;19.03;;;;;;;;;;5044151;28;20423;-58
2021/01/02 12:03:22;;;;;;;30.17;19.10;;;;;;;;;;5066683;28;20814;-57
2021/01/02 12:05:48;;;;;;;29.83;18.87;;;;;;;;;;5064409;28;20427;-58
2021/01/02 12:08:14;;;;;;;33.73;19.17;;;;;;;;;;5035226;28;20196;-58
2021/01/02 12:10:40;;;;;;;30.13;19.47;;;;;;;;;;5060741;28;20588;-57
2021/01/02 12:13:06;;;;;;;30.47;19.17;;;;;;;;;;5058056;28;20309;-57
2021/01/02 12:15:32;;;;;;;29.23;18.97;;;;;;;;;;5056108;28;20181;-57
2021/01/02 12:17:58;;;;;;;27.00;17.67;;;;;;;;;;5053975;28;20188;-57
2021/01/02 12:20:24;;;;;;;33.37;19.10;;;;;;;;;;5060094;28;20185;-57
2021/01/02 12:22:50;;;;;;;28.10;18.63;;;;;;;;;;5044922;28;20275;-57
2021/01/02 12:25:16;;;;;;;30.07;18.43;;;;;;;;;;5051639;28;20181;-58
2021/01/02 12:27:42;;;;;;;30.80;18.67;;;;;;;;;;5037238;28;20450;-57
2021/01/02 12:30:09;;;;;;;29.03;18.27;;;;;;;;;;5056101;28;20438;-58
2021/01/02 12:32:35;;;;;;;31.30;19.07;;;;;;;;;;5036149;28;20529;-57
2021/01/02 12:35:01;;;;;;;30.10;18.57;;;;;;;;;;5065925;28;20426;-56
2021/01/02 12:37:27;;;;;;;42.00;19.17;;;;;;;;;;5055732;28;20454;-56
2021/01/02 12:39:53;;;;;;;39.70;19.37;;;;;;;;;;5047407;28;20414;-56
2021/01/02 12:42:19;;;;;;;63.63;23.50;;;;;;;;;;5067733;28;20999;-57
2021/01/02 12:44:49;;;;;;;42.20;19.53;;;;;;;;;;5060952;28;20211;-54
2021/01/02 12:47:16;;;;;;;122.27;23.43;;;;;;;;;;5065302;28;20455;-54
2021/01/02 12:49:43;;;;;;;89.27;21.20;;;;;;;;;;5070821;28;20426;-56
2021/01/02 12:52:09;;;;;;;49.23;20.50;;;;;;;;;;5065206;28;20445;-59
2021/01/02 12:54:36;;;;;;;36.70;19.33;;;;;;;;;;5063790;28;20435;-57
2021/01/02 12:57:02;;;;;;;29.27;17.97;;;;;;;;;;5062152;28;20427;-56
2021/01/02 12:59:29;;;;;;;41.83;19.57;;;;;;;;;;5054720;28;20930;-56
2021/01/02 13:01:57;;;;;;;29.50;17.93;;;;;;;;;;5053276;28;20490;-56
2021/01/02 13:04:23;;;;;;;31.07;18.23;;;;;;;;;;5051951;28;20462;-55
2021/01/02 13:06:53;;;;;;;30.97;18.63;;;;;;;;;;5054940;28;20435;-55
2021/01/02 13:09:19;;;;;;;37.23;18.93;;;;;;;;;;5037305;28;20439;-57
2021/01/02 13:11:46;;;;;;;27.83;17.33;;;;;;;;;;5045024;28;20775;-56
2021/01/02 13:14:12;;;;;;;27.57;17.63;;;;;;;;;;5059914;28;20412;-56
2021/01/02 13:16:38;;;;;;;33.57;18.83;;;;;;;;;;5067435;28;20434;-56
2021/01/02 13:19:04;;;;;;;34.07;18.83;;;;;;;;;;5054988;28;20428;-56
2021/01/02 13:21:30;;;;;;;27.03;17.20;;;;;;;;;;5069211;28;20430;-56
2021/01/02 13:23:56;;;;;;;35.03;19.30;;;;;;;;;;5052515;28;20181;-56
2021/01/02 13:26:22;;;;;;;29.97;18.00;;;;;;;;;;5045239;28;20424;-56
2021/01/02 13:28:48;;;;;;;27.70;17.90;;;;;;;;;;5062580;28;20456;-57
2021/01/02 13:31:14;;;;;;;29.20;18.00;;;;;;;;;;5057541;28;20444;-57
2021/01/02 13:33:40;;;;;;;30.93;17.80;;;;;;;;;;5056347;28;20240;-57
2021/01/02 13:36:07;;;;;;;25.10;16.43;;;;;;;;;;5058975;28;20415;-57
2021/01/02 13:38:33;;;;;;;26.10;16.77;;;;;;;;;;5058551;28;20176;-57
2021/01/02 13:40:59;;;;;;;25.60;15.43;;;;;;;;;;5052673;28;20591;-57
2021/01/02 13:43:26;;;;;;;27.80;17.47;;;;;;;;;;5067605;28;20421;-57
2021/01/02 13:45:52;;;;;;;26.47;16.30;;;;;;;;;;5060208;28;20815;-55
2021/01/02 13:48:18;;;;;;;29.90;17.07;;;;;;;;;;5050069;28;20451;-55
2021/01/02 13:50:44;;;;;;;28.33;16.07;;;;;;;;;;5058127;28;20428;-56
2021/01/02 13:53:10;;;;;;;21.73;15.37;;;;;;;;;;5057067;28;20852;-55
2021/01/02 13:55:36;;;;;;;22.57;14.17;;;;;;;;;;5041829;28;20474;-58
2021/01/02 13:58:02;;;;;;;24.43;15.80;;;;;;;;;;5055979;28;20176;-56
2021/01/02 14:00:28;;;;;;;25.00;15.90;;;;;;;;;;5034278;28;20200;-55
2021/01/02 14:02:54;;;;;;;26.43;16.60;;;;;;;;;;5031950;28;20486;-57
2021/01/02 14:05:20;;;;;;;26.00;15.73;;;;;;;;;;5058987;28;20917;-55
2021/01/02 14:07:47;;;;;;;24.43;16.07;;;;;;;;;;5040109;28;21092;-55
2021/01/02 14:10:13;;;;;;;27.83;17.57;;;;;;;;;;5044919;28;20447;-55
2021/01/02 14:12:39;;;;;;;24.43;15.40;;;;;;;;;;5051360;28;20411;-55
2021/01/02 14:15:06;;;;;;;27.37;15.97;;;;;;;;;;5035990;28;20759;-58
2021/01/02 14:17:32;;;;;;;28.93;17.47;;;;;;;;;;5069580;28;20183;-57
2021/01/02 14:19:58;;;;;;;26.17;16.47;;;;;;;;;;5064741;28;20414;-57
2021/01/02 14:22:24;;;;;;;32.33;17.33;;;;;;;;;;5055287;28;20457;-58
2021/01/02 14:24:51;;;;;;;35.23;17.90;;;;;;;;;;5053847;28;20427;-57
2021/01/02 14:27:17;;;;;;;27.43;15.97;;;;;;;;;;5038180;28;20208;-57
2021/01/02 14:29:43;;;;;;;26.43;14.63;;;;;;;;;;5050543;28;20494;-57